Time;durP1;ratioP1;P1;durP2;ratioP2;P2;SDS_P1;SDS_P2;PMS_P1;PMS_P2;Temp;Humidity;BMP_temperature;BMP_pressure;BME280_temperature;BME280_humidity;BME280_pressure;Samples;Min_cycle;Max_cycle;Signal;HPM_P1;HPM_P2
2021/10/26 00:01:45;;;;;;;34.83;15.43;;;1.60;67.00;;;;;;4978752;28;20062;-79
2021/10/26 00:04:11;;;;;;;32.42;14.57;;;1.60;67.00;;;;;;4978382;28;20027;-80
2021/10/26 00:06:37;;;;;;;32.05;15.30;;;1.50;67.40;;;;;;4979107;28;20022;-79
2021/10/26 00:09:04;;;;;;;34.80;14.90;;;1.50;67.30;;;;;;4978627;28;20400;-80
2021/10/26 00:11:30;;;;;;;34.63;15.88;;;1.50;67.90;;;;;;4978495;28;20022;-79
2021/10/26 00:13:56;;;;;;;33.53;16.13;;;1.50;67.70;;;;;;4978667;28;20528;-79
2021/10/26 00:16:22;;;;;;;34.20;16.30;;;1.50;67.50;;;;;;4978693;28;20026;-79
2021/10/26 00:18:47;;;;;;;36.35;16.50;;;1.60;67.80;;;;;;4978367;28;20080;-79
2021/10/26 00:21:13;;;;;;;27.83;13.30;;;1.60;68.20;;;;;;4978452;28;20042;-79
2021/10/26 00:23:39;;;;;;;27.88;13.90;;;1.60;68.00;;;;;;4978429;28;20532;-79
2021/10/26 00:26:05;;;;;;;30.08;13.25;;;1.60;68.10;;;;;;4978476;28;20160;-80
2021/10/26 00:28:32;;;;;;;26.65;13.13;;;1.60;68.50;;;;;;4978610;28;20484;-80
2021/10/26 00:30:58;;;;;;;28.08;13.35;;;1.60;68.00;;;;;;4978098;28;20030;-80
2021/10/26 00:33:24;;;;;;;28.30;12.48;;;1.60;68.00;;;;;;4977916;28;20032;-80
2021/10/26 00:35:50;;;;;;;31.05;13.05;;;1.60;67.80;;;;;;4978261;28;20030;-81
2021/10/26 00:38:16;;;;;;;27.50;12.65;;;1.60;67.70;;;;;;4978280;28;20033;-80
2021/10/26 00:40:46;;;;;;;24.98;12.75;;;1.50;67.70;;;;;;4978181;28;20389;-80
2021/10/26 00:43:12;;;;;;;24.15;11.75;;;1.40;68.00;;;;;;4978123;28;20377;-80
2021/10/26 00:45:38;;;;;;;24.80;12.18;;;1.50;68.30;;;;;;4995321;28;20022;-80
2021/10/26 00:48:04;;;;;;;24.48;11.93;;;1.40;68.60;;;;;;4977993;28;20033;-79
2021/10/26 00:50:29;;;;;;;24.48;11.80;;;1.50;68.80;;;;;;4977821;28;20044;-80
2021/10/26 00:52:55;;;;;;;21.40;11.35;;;1.50;69.60;;;;;;4994958;28;20132;-80
2021/10/26 00:55:21;;;;;;;25.10;12.63;;;1.50;68.40;;;;;;4978067;28;20424;-79
2021/10/26 00:57:48;;;;;;;23.02;10.82;;;1.40;68.90;;;;;;4995195;28;20076;-79
2021/10/26 01:00:16;;;;;;;20.80;10.18;;;1.40;68.70;;;;;;4977711;28;20066;-80
2021/10/26 01:02:43;;;;;;;23.17;10.57;;;1.40;68.50;;;;;;4977468;28;20033;-80
2021/10/26 01:05:09;;;;;;;22.10;10.75;;;1.40;69.10;;;;;;4994895;28;20019;-80
2021/10/26 01:07:36;;;;;;;22.52;11.38;;;1.40;68.90;;;;;;4977687;28;20037;-80
2021/10/26 01:10:03;;;;;;;22.45;10.75;;;1.40;68.70;;;;;;4977683;28;20036;-80
2021/10/26 01:12:29;;;;;;;20.83;10.73;;;1.40;68.90;;;;;;4978255;28;20034;-80
2021/10/26 01:14:56;;;;;;;20.58;9.95;;;1.40;68.90;;;;;;4977804;28;20034;-80
2021/10/26 01:17:23;;;;;;;19.88;10.13;;;1.40;68.90;;;;;;4977328;28;20034;-80
2021/10/26 01:19:53;;;;;;;20.40;10.18;;;1.30;68.50;;;;;;4994622;28;20384;-79
2021/10/26 01:22:21;;;;;;;21.38;10.75;;;1.30;68.70;;;;;;4977409;28;20027;-81
2021/10/26 01:24:48;;;;;;;20.30;9.98;;;1.30;68.80;;;;;;4994729;28;20108;-79
2021/10/26 01:27:15;;;;;;;18.27;9.38;;;1.30;68.80;;;;;;4977249;28;20053;-79
2021/10/26 01:29:41;;;;;;;18.10;9.48;;;1.20;68.90;;;;;;4994928;28;20084;-80
2021/10/26 01:32:09;;;;;;;19.98;8.80;;;1.20;69.20;;;;;;4979759;28;20030;-79
2021/10/26 01:34:35;;;;;;;17.05;8.05;;;1.20;69.30;;;;;;4977175;28;20493;-80
2021/10/26 01:37:07;;;;;;;16.60;7.80;;;1.20;69.70;;;;;;4977124;28;20037;-80
2021/10/26 01:39:33;;;;;;;16.50;8.02;;;1.20;69.30;;;;;;4976847;28;20034;-80
2021/10/26 01:41:59;;;;;;;17.90;8.63;;;1.20;69.60;;;;;;4994434;28;20030;-80
2021/10/26 01:44:25;;;;;;;19.25;8.68;;;1.20;69.70;;;;;;4976837;28;20030;-80
2021/10/26 01:46:52;;;;;;;16.08;8.48;;;1.10;69.90;;;;;;4994382;28;20038;-80
2021/10/26 01:49:19;;;;;;;21.05;8.73;;;1.20;70.50;;;;;;4976892;28;20410;-80
2021/10/26 01:51:45;;;;;;;17.40;8.40;;;1.20;69.70;;;;;;4994162;28;20517;-79
2021/10/26 01:54:11;;;;;;;17.85;8.30;;;1.20;69.90;;;;;;4976695;28;20081;-79
2021/10/26 01:56:36;;;;;;;17.50;7.53;;;1.20;69.90;;;;;;4976588;28;20053;-80
2021/10/26 01:59:03;;;;;;;17.48;7.63;;;1.20;69.90;;;;;;4977588;28;20035;-79
2021/10/26 02:01:29;;;;;;;15.13;7.30;;;1.20;70.40;;;;;;4994357;28;20037;-79
2021/10/26 02:03:54;;;;;;;14.10;7.10;;;1.20;69.50;;;;;;4978160;28;20026;-79
2021/10/26 02:06:20;;;;;;;13.45;6.85;;;1.20;69.10;;;;;;4983407;28;20457;-79
2021/10/26 02:08:46;;;;;;;15.80;7.25;;;1.20;69.20;;;;;;4983426;28;20391;-79
2021/10/26 02:11:12;;;;;;;14.02;6.85;;;1.20;69.60;;;;;;5000698;28;20030;-79
2021/10/26 02:13:38;;;;;;;14.32;7.25;;;1.10;69.30;;;;;;5000493;28;20029;-79
2021/10/26 02:16:04;;;;;;;14.02;7.13;;;1.10;69.70;;;;;;4983233;28;20476;-79
2021/10/26 02:18:29;;;;;;;12.82;6.68;;;1.10;70.10;;;;;;4983021;28;20030;-79
2021/10/26 02:20:55;;;;;;;14.77;7.30;;;1.10;69.50;;;;;;4982941;28;20101;-79
2021/10/26 02:23:21;;;;;;;20.27;9.30;;;1.00;69.80;;;;;;5000750;28;20102;-80
2021/10/26 02:25:47;;;;;;;17.58;9.52;;;1.00;69.90;;;;;;4983009;28;20029;-80
2021/10/26 02:28:13;;;;;;;16.42;8.93;;;1.00;71.40;;;;;;4983309;28;20034;-80
2021/10/26 02:30:41;;;;;;;15.35;8.40;;;1.00;71.60;;;;;;4983116;28;20077;-80
2021/10/26 02:33:07;;;;;;;15.30;8.50;;;1.00;70.80;;;;;;4982930;28;20030;-79
2021/10/26 02:35:33;;;;;;;18.73;9.10;;;1.00;70.60;;;;;;4983043;28;20105;-79
2021/10/26 02:38:00;;;;;;;16.67;8.20;;;0.90;70.40;;;;;;4982956;28;20176;-79
2021/10/26 02:40:26;;;;;;;18.38;9.73;;;0.90;70.30;;;;;;4982662;28;20038;-81
2021/10/26 02:42:52;;;;;;;16.15;8.65;;;0.90;70.60;;;;;;4983351;28;20029;-80
2021/10/26 02:45:19;;;;;;;18.50;9.57;;;0.90;70.50;;;;;;4983233;28;20109;-80
2021/10/26 02:47:45;;;;;;;16.67;8.40;;;0.90;70.60;;;;;;4983026;28;20030;-80
2021/10/26 02:50:12;;;;;;;18.02;8.85;;;0.80;70.80;;;;;;5000045;28;20062;-80
2021/10/26 02:52:38;;;;;;;17.77;8.98;;;0.80;71.10;;;;;;5000464;28;20057;-79
2021/10/26 02:55:05;;;;;;;17.95;9.38;;;0.80;71.30;;;;;;4983365;28;20030;-79
2021/10/26 02:57:31;;;;;;;19.17;9.48;;;0.70;71.00;;;;;;5000637;28;20476;-78
2021/10/26 02:59:57;;;;;;;18.27;8.50;;;0.70;71.20;;;;;;5002164;28;20034;-78
2021/10/26 03:02:23;;;;;;;23.63;8.55;;;0.70;71.90;;;;;;4983331;28;20113;-78
2021/10/26 03:04:49;;;;;;;16.90;7.90;;;0.70;71.30;;;;;;4982815;28;20033;-78
2021/10/26 03:07:15;;;;;;;17.20;8.45;;;0.70;71.90;;;;;;5000614;28;20380;-79
2021/10/26 03:09:41;;;;;;;17.75;8.88;;;0.60;71.20;;;;;;5000357;28;20042;-79
2021/10/26 03:12:07;;;;;;;16.55;8.10;;;0.60;71.70;;;;;;5000353;28;20050;-79
2021/10/26 03:14:32;;;;;;;16.73;8.57;;;0.60;72.60;;;;;;5000442;28;20098;-79
2021/10/26 03:16:58;;;;;;;19.02;9.07;;;0.60;73.00;;;;;;4978534;28;20117;-79
2021/10/26 03:19:24;;;;;;;21.23;8.95;;;0.50;73.60;;;;;;4980064;28;20089;-78
2021/10/26 03:21:50;;;;;;;14.20;7.45;;;0.50;72.40;;;;;;4979707;28;20026;-79
2021/10/26 03:24:15;;;;;;;14.70;7.32;;;0.50;72.50;;;;;;4982015;28;20173;-78
2021/10/26 03:26:41;;;;;;;12.23;6.45;;;0.50;72.60;;;;;;4980976;28;20031;-77
2021/10/26 03:29:07;;;;;;;17.25;7.63;;;0.50;72.50;;;;;;4980367;28;20031;-79
2021/10/26 03:31:33;;;;;;;13.50;7.22;;;0.50;73.20;;;;;;4979794;28;20037;-79
2021/10/26 03:33:59;;;;;;;14.40;6.95;;;0.50;72.20;;;;;;4979372;28;20109;-77
2021/10/26 03:36:24;;;;;;;11.57;6.22;;;0.50;71.90;;;;;;4979355;28;20054;-79
2021/10/26 03:38:51;;;;;;;12.57;6.65;;;0.50;72.00;;;;;;4979081;28;20384;-79
2021/10/26 03:41:17;;;;;;;13.32;7.07;;;0.50;72.40;;;;;;4979168;28;20240;-78
2021/10/26 03:43:42;;;;;;;15.07;7.35;;;0.50;72.40;;;;;;4979128;28;20081;-78
2021/10/26 03:46:08;;;;;;;13.85;7.40;;;0.50;72.80;;;;;;4978909;28;20041;-80
2021/10/26 03:48:34;;;;;;;13.23;6.78;;;0.50;72.30;;;;;;4978888;28;20050;-80
2021/10/26 03:51:00;;;;;;;14.00;7.03;;;0.50;72.20;;;;;;4979100;28;20038;-78
2021/10/26 03:53:27;;;;;;;13.23;6.70;;;0.50;72.80;;;;;;4978404;28;20058;-80
2021/10/26 03:55:53;;;;;;;15.20;6.97;;;0.50;72.50;;;;;;4995980;28;20552;-79
2021/10/26 03:58:18;;;;;;;16.60;7.88;;;0.50;72.60;;;;;;4996714;28;20110;-78
2021/10/26 04:00:44;;;;;;;15.48;7.40;;;0.50;72.60;;;;;;4995982;28;20034;-79
2021/10/26 04:03:10;;;;;;;15.48;8.13;;;0.50;72.00;;;;;;4978943;28;20023;-78
2021/10/26 04:11:12;;;;;;;16.02;8.15;;;0.50;72.70;;;;;;4996138;28;20428;-80
2021/10/26 04:13:41;;;;;;;15.88;8.00;;;0.50;72.30;;;;;;4978540;28;20037;-79
2021/10/26 04:16:07;;;;;;;16.17;8.13;;;0.50;72.60;;;;;;4995681;28;20034;-79
2021/10/26 04:18:33;;;;;;;17.75;8.23;;;0.50;73.10;;;;;;4995569;28;20037;-79
2021/10/26 04:20:59;;;;;;;16.90;8.63;;;0.50;72.90;;;;;;4995233;28;20495;-79
2021/10/26 04:23:25;;;;;;;17.80;9.32;;;0.50;72.80;;;;;;4995729;28;20113;-80
2021/10/26 04:25:51;;;;;;;18.63;8.80;;;0.50;72.50;;;;;;4978096;28;20026;-79
2021/10/26 04:28:17;;;;;;;17.08;8.52;;;0.50;72.80;;;;;;4995240;28;20080;-79
2021/10/26 04:30:45;;;;;;;17.00;8.50;;;0.60;72.90;;;;;;4978112;28;20064;-77
2021/10/26 04:33:13;;;;;;;16.27;8.82;;;0.50;72.80;;;;;;4995654;28;20035;-78
2021/10/26 04:35:38;;;;;;;17.05;8.65;;;0.60;72.70;;;;;;4977913;28;20044;-78
2021/10/26 04:38:04;;;;;;;19.20;9.00;;;0.60;73.20;;;;;;4977725;28;20465;-78
2021/10/26 04:40:31;;;;;;;18.30;9.18;;;0.60;73.00;;;;;;4977613;28;20031;-79
2021/10/26 04:42:58;;;;;;;20.85;9.02;;;0.60;73.10;;;;;;4977467;28;20457;-78
2021/10/26 04:45:23;;;;;;;17.70;8.98;;;0.60;72.80;;;;;;4977550;28;20045;-79
2021/10/26 04:47:50;;;;;;;20.55;8.93;;;0.60;72.80;;;;;;4995176;28;20102;-78
2021/10/26 04:50:15;;;;;;;18.95;9.50;;;0.60;73.20;;;;;;4995169;28;20072;-78
2021/10/26 04:52:42;;;;;;;20.45;9.25;;;0.70;73.00;;;;;;4977457;28;20050;-78
2021/10/26 04:55:08;;;;;;;18.77;8.90;;;0.70;73.40;;;;;;4994906;28;20030;-79
2021/10/26 04:57:33;;;;;;;15.35;8.20;;;0.70;73.40;;;;;;4994814;28;20029;-80
2021/10/26 04:59:59;;;;;;;18.02;8.18;;;0.70;73.20;;;;;;4994978;28;20046;-81
2021/10/26 05:02:25;;;;;;;16.50;8.55;;;0.70;73.00;;;;;;4994776;28;20461;-84
2021/10/26 05:04:50;;;;;;;13.65;7.82;;;0.60;73.20;;;;;;4995467;28;20057;-83
2021/10/26 05:07:17;;;;;;;30.30;19.85;;;0.70;73.10;;;;;;4978225;28;20030;-86
2021/10/26 05:09:43;;;;;;;28.75;15.32;;;0.70;73.40;;;;;;4979139;28;20045;-83
2021/10/26 05:12:09;;;;;;;21.30;12.32;;;0.70;73.80;;;;;;4977450;28;20045;-83
2021/10/26 05:14:35;;;;;;;17.98;9.50;;;0.80;73.90;;;;;;4977348;28;20457;-80
2021/10/26 05:17:04;;;;;;;18.17;8.70;;;0.80;73.10;;;;;;4995378;28;20030;-83
2021/10/26 05:19:30;;;;;;;14.95;8.65;;;0.80;72.90;;;;;;4977522;28;20385;-83
2021/10/26 05:21:56;;;;;;;15.10;8.57;;;0.90;73.10;;;;;;4994566;28;20439;-82
2021/10/26 05:24:24;;;;;;;15.18;8.48;;;0.90;73.30;;;;;;4994721;28;20104;-82
2021/10/26 05:26:52;;;;;;;17.27;8.23;;;0.90;72.90;;;;;;4977082;28;20053;-81
2021/10/26 05:29:18;;;;;;;15.65;8.48;;;1.00;73.10;;;;;;4995272;28;20113;-83
2021/10/26 05:31:44;;;;;;;15.15;7.65;;;1.00;73.00;;;;;;4976917;28;20049;-83
2021/10/26 05:34:10;;;;;;;14.70;8.27;;;1.10;73.10;;;;;;4994969;28;20030;-83
2021/10/26 05:36:37;;;;;;;15.13;7.72;;;1.10;72.90;;;;;;4977347;28;20049;-83
2021/10/26 05:39:08;;;;;;;14.05;7.72;;;1.20;72.80;;;;;;4975977;28;20088;-84
2021/10/26 05:41:35;;;;;;;14.10;7.95;;;1.20;72.90;;;;;;4993993;28;20057;-80
2021/10/26 05:44:03;;;;;;;16.13;8.95;;;1.30;72.70;;;;;;4976833;28;20041;-84
2021/10/26 05:46:29;;;;;;;15.73;9.25;;;1.40;72.70;;;;;;4977143;28;20053;-79
2021/10/26 05:48:54;;;;;;;14.27;7.70;;;1.50;72.50;;;;;;4976306;28;20073;-84
2021/10/26 05:51:20;;;;;;;14.07;7.93;;;1.60;72.10;;;;;;4994219;28;20560;-81
2021/10/26 05:53:46;;;;;;;13.93;7.60;;;1.60;71.90;;;;;;4994237;28;20058;-80
2021/10/26 05:56:12;;;;;;;13.20;7.00;;;1.70;72.00;;;;;;4976573;28;20054;-83
2021/10/26 05:58:38;;;;;;;14.10;7.53;;;1.80;72.00;;;;;;4994004;28;20452;-81
2021/10/26 06:01:06;;;;;;;13.02;6.85;;;1.90;71.70;;;;;;4992962;28;20092;-82
2021/10/26 06:03:35;;;;;;;13.98;7.57;;;2.00;71.70;;;;;;4974565;28;20026;-80
2021/10/26 06:06:01;;;;;;;14.02;7.70;;;2.10;71.70;;;;;;4993399;28;20030;-81
2021/10/26 06:08:28;;;;;;;14.13;7.50;;;2.20;71.70;;;;;;4993487;28;20030;-81
2021/10/26 06:11:02;;;;;;;12.82;7.18;;;2.30;71.40;;;;;;4992277;28;20098;-83
2021/10/26 06:13:31;;;;;;;15.05;7.60;;;2.40;71.30;;;;;;4974636;28;20142;-81
2021/10/26 06:15:57;;;;;;;15.93;8.57;;;2.50;71.10;;;;;;4974238;28;20022;-81
2021/10/26 06:18:23;;;;;;;17.10;8.60;;;2.60;71.10;;;;;;4991611;28;20038;-81
2021/10/26 06:20:48;;;;;;;14.00;8.30;;;2.70;70.80;;;;;;4975040;28;20030;-81
2021/10/26 06:23:15;;;;;;;18.00;8.98;;;2.70;70.50;;;;;;4975357;28;20465;-81
2021/10/26 06:25:41;;;;;;;15.98;8.90;;;2.90;70.40;;;;;;4993427;28;20036;-81
2021/10/26 06:28:07;;;;;;;14.57;8.40;;;3.00;70.20;;;;;;4976375;28;20120;-81
2021/10/26 06:30:33;;;;;;;18.70;9.23;;;3.20;70.10;;;;;;4976341;28;20041;-81
2021/10/26 06:32:59;;;;;;;14.82;8.50;;;3.30;70.40;;;;;;4976541;28;20113;-80
2021/10/26 06:35:25;;;;;;;16.85;9.40;;;3.40;69.80;;;;;;4976506;28;20129;-82
2021/10/26 06:37:51;;;;;;;14.80;8.65;;;3.60;69.50;;;;;;4976139;28;20069;-80
2021/10/26 06:40:17;;;;;;;15.20;8.70;;;3.70;69.00;;;;;;4993844;28;20038;-81
2021/10/26 06:42:43;;;;;;;18.30;9.80;;;3.80;68.70;;;;;;4976453;28;20068;-81
2021/10/26 06:45:10;;;;;;;22.05;11.35;;;4.00;69.20;;;;;;4976422;28;20079;-81
2021/10/26 06:47:37;;;;;;;20.75;11.20;;;4.30;69.80;;;;;;4994056;28;20061;-82
2021/10/26 06:50:04;;;;;;;24.23;11.65;;;4.80;71.20;;;;;;4977478;28;20061;-82
2021/10/26 06:52:30;;;;;;;23.08;10.80;;;5.30;71.50;;;;;;4974067;28;20058;-82
2021/10/26 06:54:56;;;;;;;19.45;10.43;;;5.90;71.00;;;;;;4977887;28;20027;-82
2021/10/26 06:57:24;;;;;;;17.42;8.88;;;6.30;69.30;;;;;;4977891;28;20059;-82
2021/10/26 06:59:50;;;;;;;15.82;8.82;;;6.80;69.00;;;;;;4960420;28;20034;-82
2021/10/26 07:02:16;;;;;;;15.02;8.60;;;7.30;67.40;;;;;;4978121;28;20038;-82
2021/10/26 07:04:41;;;;;;;13.32;7.80;;;7.60;66.10;;;;;;4977748;28;20034;-81
2021/10/26 07:07:07;;;;;;;24.25;12.90;;;8.00;65.80;;;;;;4960358;28;20489;-81
2021/10/26 07:09:33;;;;;;;29.70;15.57;;;8.50;65.70;;;;;;4960960;28;20054;-82
2021/10/26 07:11:58;;;;;;;30.17;14.52;;;8.90;64.40;;;;;;4960710;28;20485;-81
2021/10/26 07:14:25;;;;;;;28.95;13.95;;;9.30;63.70;;;;;;4960277;28;20531;-80
2021/10/26 07:16:51;;;;;;;25.38;12.90;;;9.70;62.40;;;;;;4977637;28;20054;-79
2021/10/26 07:19:17;;;;;;;19.15;10.90;;;9.90;61.90;;;;;;4959962;28;20113;-80
2021/10/26 07:21:42;;;;;;;17.30;9.48;;;10.20;61.20;;;;;;4977491;28;20484;-81
2021/10/26 07:24:09;;;;;;;18.98;9.70;;;10.50;60.40;;;;;;4960090;28;20410;-81
2021/10/26 07:26:36;;;;;;;15.32;8.20;;;10.70;59.20;;;;;;4977589;28;20373;-81
2021/10/26 07:29:02;;;;;;;13.23;7.45;;;10.90;59.30;;;;;;4959945;28;20190;-82
2021/10/26 07:31:28;;;;;;;12.13;6.78;;;11.20;58.50;;;;;;4977276;28;20027;-81
2021/10/26 07:33:59;;;;;;;11.52;6.57;;;11.50;58.30;;;;;;4960530;28;20030;-82
2021/10/26 07:36:33;;;;;;;14.40;7.50;;;11.80;57.40;;;;;;4977861;28;20054;-81
2021/10/26 07:39:06;;;;;;;14.57;8.63;;;12.10;55.80;;;;;;4977197;28;20031;-83
2021/10/26 07:41:33;;;;;;;13.65;8.30;;;12.10;54.60;;;;;;4977255;28;20038;-81
2021/10/26 07:43:58;;;;;;;12.95;7.57;;;12.30;54.50;;;;;;4976951;28;20095;-81
2021/10/26 07:46:24;;;;;;;12.05;7.65;;;12.50;54.40;;;;;;4959895;28;20027;-81
2021/10/26 07:48:50;;;;;;;15.23;7.38;;;12.70;53.30;;;;;;4977242;28;20527;-82
2021/10/26 07:51:16;;;;;;;11.73;6.90;;;12.90;51.50;;;;;;4976759;28;20035;-82
2021/10/26 07:53:41;;;;;;;12.23;6.45;;;13.00;52.00;;;;;;4992435;28;20486;-82
2021/10/26 07:56:08;;;;;;;10.85;6.30;;;13.20;50.40;;;;;;4996361;28;20026;-82
2021/10/26 07:58:36;;;;;;;10.13;5.07;;;13.30;49.80;;;;;;4978730;28;20595;-81
2021/10/26 08:01:02;;;;;;;9.73;5.72;;;13.20;49.50;;;;;;4978814;28;20489;-82
2021/10/26 08:03:28;;;;;;;10.35;5.30;;;13.30;49.50;;;;;;4978076;28;20029;-83
2021/10/26 08:05:54;;;;;;;10.68;4.78;;;13.40;48.80;;;;;;4978690;28;20026;-82
2021/10/26 08:08:21;;;;;;;8.52;4.82;;;13.60;47.60;;;;;;4979076;28;20062;-82
2021/10/26 08:10:47;;;;;;;8.75;4.60;;;13.60;46.70;;;;;;4978899;28;20031;-82
2021/10/26 08:13:14;;;;;;;9.05;5.00;;;13.50;46.20;;;;;;4978584;28;20037;-82
2021/10/26 08:15:42;;;;;;;7.25;4.60;;;13.50;45.70;;;;;;4978485;28;20503;-83
2021/10/26 08:18:08;;;;;;;8.18;5.28;;;13.40;45.60;;;;;;4978622;28;20029;-82
2021/10/26 08:20:34;;;;;;;10.68;5.13;;;13.40;45.50;;;;;;4978479;28;20027;-82
2021/10/26 08:23:00;;;;;;;10.55;5.97;;;13.40;45.80;;;;;;4978980;28;20033;-81
2021/10/26 08:25:31;;;;;;;9.60;5.07;;;13.60;45.80;;;;;;4995989;28;20032;-83
2021/10/26 08:27:57;;;;;;;9.88;4.85;;;13.70;45.30;;;;;;4978487;28;20350;-81
2021/10/26 08:33:21;;;;;;;6.55;4.80;;;14.00;44.10;;;;;;4995437;28;20030;-83
2021/10/26 08:35:41;;;;;;;10.75;4.40;;;14.00;44.40;;;;;;4995129;28;20092;-82
2021/10/26 08:38:07;;;;;;;10.23;4.82;;;14.20;43.80;;;;;;4995468;28;20034;-81
2021/10/26 08:40:36;;;;;;;7.40;4.03;;;14.30;42.40;;;;;;4995513;28;20169;-81
2021/10/26 08:43:06;;;;;;;7.95;4.28;;;14.20;42.40;;;;;;4977683;28;20038;-82
2021/10/26 08:45:35;;;;;;;7.22;3.90;;;14.10;42.30;;;;;;4978045;28;20027;-82
2021/10/26 08:48:03;;;;;;;7.88;4.03;;;13.90;42.80;;;;;;4995099;28;20461;-82
2021/10/26 08:50:34;;;;;;;8.38;4.18;;;14.10;42.30;;;;;;4977912;28;20035;-83
2021/10/26 08:53:00;;;;;;;6.32;4.38;;;14.20;41.70;;;;;;4978184;28;20058;-80
2021/10/26 08:55:26;;;;;;;6.60;4.30;;;14.10;42.10;;;;;;4977443;28;20030;-83
2021/10/26 08:57:52;;;;;;;6.97;4.30;;;14.20;42.00;;;;;;4995051;28;20457;-82
2021/10/26 09:00:18;;;;;;;8.18;4.20;;;14.30;42.60;;;;;;4995467;28;20057;-82
2021/10/26 09:02:48;;;;;;;7.03;4.43;;;14.60;41.90;;;;;;4995095;28;20026;-82
2021/10/26 09:05:17;;;;;;;9.25;5.05;;;14.80;41.10;;;;;;4995084;28;20053;-82
2021/10/26 09:07:59;;;;;;;8.07;4.75;;;14.70;40.90;;;;;;4977541;28;20034;-82
2021/10/26 09:10:29;;;;;;;9.00;5.13;;;14.80;40.90;;;;;;4995154;28;20027;-81
2021/10/26 09:18:41;;;;;;;9.95;5.40;;;14.60;41.00;;;;;;4995007;28;19916;-82
2021/10/26 09:21:31;;;;;;;10.07;5.65;;;14.80;41.30;;;;;;4977164;28;20034;-81
2021/10/26 09:24:00;;;;;;;8.90;4.90;;;14.80;40.90;;;;;;4977610;28;20073;-82
2021/10/26 09:26:42;;;;;;;10.98;4.68;;;14.90;41.10;;;;;;4994626;28;20128;-84
2021/10/26 09:29:08;;;;;;;8.30;4.63;;;15.00;41.00;;;;;;4977086;28;20041;-82
2021/10/26 09:31:36;;;;;;;7.30;4.47;;;15.10;41.00;;;;;;4994460;28;20019;-82
2021/10/26 09:34:16;;;;;;;9.52;4.93;;;15.30;41.10;;;;;;4977148;28;20037;-81
2021/10/26 09:36:48;;;;;;;7.07;4.78;;;15.50;40.30;;;;;;4994804;28;20023;-83
2021/10/26 09:39:19;;;;;;;7.03;4.40;;;15.50;40.60;;;;;;4976815;28;20035;-82
2021/10/26 09:41:54;;;;;;;8.38;5.00;;;15.70;40.30;;;;;;4976999;28;20061;-82
2021/10/26 09:44:25;;;;;;;7.63;4.90;;;16.00;40.10;;;;;;4994346;28;20026;-82
2021/10/26 09:47:10;;;;;;;8.68;5.13;;;16.10;40.30;;;;;;4994204;28;20098;-81
2021/10/26 09:49:38;;;;;;;9.07;5.32;;;16.60;39.00;;;;;;4976540;28;20039;-83
2021/10/26 09:52:18;;;;;;;9.02;5.43;;;16.70;38.80;;;;;;4994076;28;20349;-82
2021/10/26 09:54:57;;;;;;;11.67;6.90;;;16.90;38.10;;;;;;4994989;28;20026;-83
2021/10/26 09:57:36;;;;;;;10.82;5.18;;;16.90;38.50;;;;;;4976757;28;20541;-83
2021/10/26 10:00:04;;;;;;;7.25;4.07;;;16.90;38.40;;;;;;4976485;28;20030;-82
2021/10/26 10:02:30;;;;;;;7.05;4.13;;;17.20;38.10;;;;;;4994322;28;20416;-83
2021/10/26 10:04:58;;;;;;;7.63;4.30;;;17.40;37.80;;;;;;4976359;28;20034;-82
2021/10/26 10:07:38;;;;;;;6.18;4.00;;;17.50;37.00;;;;;;4994023;28;20023;-83
2021/10/26 10:10:12;;;;;;;6.95;4.07;;;17.60;36.90;;;;;;4976496;28;20076;-82
2021/10/26 10:12:39;;;;;;;6.93;4.57;;;17.50;36.70;;;;;;4976773;28;20126;-82
2021/10/26 10:15:07;;;;;;;7.45;4.80;;;17.60;36.90;;;;;;4976418;28;20061;-83
2021/10/26 10:17:35;;;;;;;7.78;4.65;;;17.70;36.70;;;;;;4976589;28;20038;-82
2021/10/26 10:20:04;;;;;;;9.18;5.38;;;17.80;36.30;;;;;;4993983;28;20026;-81
2021/10/26 10:22:31;;;;;;;8.52;5.07;;;17.90;36.40;;;;;;4993976;28;20031;-82
2021/10/26 10:25:00;;;;;;;7.40;4.75;;;18.00;36.00;;;;;;4994724;28;20034;-83
2021/10/26 10:27:30;;;;;;;6.68;4.65;;;18.00;36.50;;;;;;4980874;28;20033;-83
2021/10/26 10:29:57;;;;;;;8.03;5.13;;;18.10;36.40;;;;;;4980475;28;20034;-84
2021/10/26 10:32:24;;;;;;;7.53;4.38;;;18.30;36.30;;;;;;4979753;28;20023;-82
2021/10/26 10:34:50;;;;;;;8.50;4.88;;;18.50;35.90;;;;;;4979732;28;20148;-82
2021/10/26 10:37:19;;;;;;;7.18;4.75;;;18.70;35.20;;;;;;4979936;28;20429;-82
2021/10/26 10:39:45;;;;;;;8.75;5.45;;;18.60;35.30;;;;;;4980039;28;20112;-83
2021/10/26 10:42:23;;;;;;;8.00;5.18;;;18.80;34.90;;;;;;4980224;28;20523;-82
2021/10/26 10:44:54;;;;;;;8.82;5.38;;;18.90;35.00;;;;;;4980395;28;20023;-81
2021/10/26 10:47:32;;;;;;;8.30;5.15;;;19.00;35.00;;;;;;4980003;28;20487;-81
2021/10/26 10:49:58;;;;;;;8.85;5.68;;;19.00;34.20;;;;;;4979938;28;20034;-82
2021/10/26 10:52:33;;;;;;;9.05;5.00;;;19.20;33.60;;;;;;4974741;28;20042;-84
2021/10/26 10:55:01;;;;;;;9.18;5.43;;;19.00;33.80;;;;;;4960887;28;20113;-82
2021/10/26 10:57:45;;;;;;;8.90;5.43;;;19.00;34.20;;;;;;4960549;28;20084;-82
2021/10/26 11:00:15;;;;;;;10.63;5.05;;;19.00;33.50;;;;;;4977757;28;20453;-83
2021/10/26 11:02:41;;;;;;;6.55;4.28;;;19.10;34.60;;;;;;4960800;28;20035;-81
2021/10/26 11:05:27;;;;;;;7.75;4.45;;;19.30;33.80;;;;;;4961038;28;20042;-82
2021/10/26 11:07:54;;;;;;;8.80;4.28;;;19.40;33.30;;;;;;4977604;28;20106;-83
2021/10/26 11:10:21;;;;;;;6.47;3.90;;;19.40;33.00;;;;;;4960229;28;20468;-82
2021/10/26 11:12:47;;;;;;;7.80;4.25;;;19.20;33.50;;;;;;4959950;28;20035;-82
2021/10/26 11:15:42;;;;;;;7.13;4.05;;;19.30;33.30;;;;;;4977302;28;20031;-82
2021/10/26 11:18:08;;;;;;;5.80;3.55;;;19.20;33.30;;;;;;4977264;28;20105;-82
2021/10/26 11:20:37;;;;;;;7.05;4.18;;;19.00;33.30;;;;;;4960141;28;20058;-82
2021/10/26 11:23:10;;;;;;;6.88;3.50;;;19.00;33.80;;;;;;4960294;28;20493;-82
2021/10/26 11:25:38;;;;;;;4.82;3.42;;;19.30;33.70;;;;;;4959968;28;20085;-81
2021/10/26 11:28:10;;;;;;;5.07;3.60;;;19.40;33.20;;;;;;4960445;28;20027;-83
2021/10/26 11:30:36;;;;;;;5.22;3.47;;;19.60;32.80;;;;;;4960481;28;20026;-81
2021/10/26 11:33:15;;;;;;;9.80;4.13;;;19.50;33.40;;;;;;4959824;28;20023;-81
2021/10/26 11:35:50;;;;;;;4.85;3.17;;;19.80;32.50;;;;;;4959760;28;20022;-81
2021/10/26 11:38:25;;;;;;;5.88;3.92;;;19.90;32.20;;;;;;4976081;28;20027;-80
2021/10/26 11:40:53;;;;;;;6.93;3.35;;;19.60;32.90;;;;;;4977190;28;20382;-80
2021/10/26 11:43:22;;;;;;;8.00;3.97;;;19.70;33.20;;;;;;4960003;28;20520;-81
2021/10/26 11:46:04;;;;;;;6.68;3.88;;;19.70;32.60;;;;;;4977202;28;20027;-81
2021/10/26 11:48:48;;;;;;;7.00;3.88;;;19.70;32.10;;;;;;4959775;28;20489;-81
2021/10/26 11:51:26;;;;;;;5.28;3.60;;;19.70;32.40;;;;;;4976771;28;20038;-82
2021/10/26 11:54:19;;;;;;;6.50;3.80;;;19.50;33.10;;;;;;4993538;28;20136;-82
2021/10/26 11:57:03;;;;;;;6.13;3.85;;;19.90;32.90;;;;;;4973946;28;20124;-81
2021/10/26 11:59:31;;;;;;;6.43;4.20;;;19.90;32.40;;;;;;4996407;28;20097;-82
2021/10/26 12:02:10;;;;;;;8.52;4.53;;;19.90;32.70;;;;;;4996651;28;20420;-82
2021/10/26 12:04:56;;;;;;;8.02;4.95;;;20.00;32.50;;;;;;4978973;28;20099;-82
2021/10/26 12:07:24;;;;;;;10.00;4.88;;;20.00;32.00;;;;;;4996175;28;20034;-82
2021/10/26 12:09:52;;;;;;;7.00;4.20;;;19.80;32.60;;;;;;4978449;28;20098;-82
2021/10/26 12:12:23;;;;;;;7.60;4.43;;;19.70;33.10;;;;;;4995855;28;20461;-82
2021/10/26 12:15:09;;;;;;;9.65;5.00;;;20.00;32.60;;;;;;4996131;28;20033;-82
2021/10/26 12:17:39;;;;;;;6.93;4.47;;;20.00;31.70;;;;;;4980121;28;20101;-81
2021/10/26 12:20:07;;;;;;;6.80;4.10;;;20.00;32.50;;;;;;4980799;28;20054;-82
2021/10/26 12:22:39;;;;;;;7.22;4.07;;;20.10;32.40;;;;;;4996152;28;20030;-81
2021/10/26 12:25:13;;;;;;;5.47;3.63;;;20.30;32.30;;;;;;4978472;28;20492;-82
2021/10/26 12:27:46;;;;;;;4.95;3.30;;;20.10;32.50;;;;;;4995636;28;20109;-81
2021/10/26 12:30:16;;;;;;;8.45;3.67;;;20.30;32.60;;;;;;4979001;28;20034;-82
2021/10/26 12:32:55;;;;;;;5.75;3.80;;;20.50;32.20;;;;;;4995592;28;20037;-82
2021/10/26 12:35:25;;;;;;;6.20;4.18;;;20.50;31.90;;;;;;4995545;28;20084;-82
2021/10/26 12:38:25;;;;;;;6.35;4.07;;;20.50;31.90;;;;;;4977872;28;20033;-82
2021/10/26 12:40:52;;;;;;;9.30;4.40;;;20.50;31.80;;;;;;4977938;28;20097;-82
2021/10/26 12:43:25;;;;;;;7.28;4.85;;;20.40;32.20;;;;;;4977767;28;20027;-82
2021/10/26 12:45:58;;;;;;;6.30;4.03;;;20.50;31.70;;;;;;4978374;28;20026;-83
2021/10/26 12:48:33;;;;;;;6.47;3.65;;;20.50;31.80;;;;;;4977997;28;20089;-83
2021/10/26 12:51:00;;;;;;;7.18;4.20;;;20.40;32.00;;;;;;4977913;28;20030;-83
2021/10/26 12:53:39;;;;;;;9.00;4.53;;;20.40;31.90;;;;;;4994903;28;20053;-83
2021/10/26 12:56:21;;;;;;;5.55;3.60;;;20.40;31.90;;;;;;4977534;28;20061;-82
2021/10/26 12:58:50;;;;;;;6.50;4.40;;;20.40;32.10;;;;;;4994773;28;20038;-82
2021/10/26 13:01:29;;;;;;;8.13;4.65;;;20.30;32.00;;;;;;4995088;28;20089;-82
2021/10/26 13:04:07;;;;;;;8.25;4.30;;;20.40;31.70;;;;;;4995070;28;20413;-82
2021/10/26 13:06:40;;;;;;;7.05;4.40;;;20.20;32.20;;;;;;4995157;28;20023;-82